sensor_id;sensor_type;location;lat;lon;timestamp;P1;durP1;ratioP1;P2;durP2;ratioP2
13592;SDS011;6867;50.998;4.250;2023-09-19T00:02:03;10.53;;;2.50;;
13592;SDS011;6867;50.998;4.250;2023-09-19T00:04:31;6.90;;;2.33;;
13592;SDS011;6867;50.998;4.250;2023-09-19T00:06:58;11.40;;;3.10;;
13592;SDS011;6867;50.998;4.250;2023-09-19T00:09:24;14.23;;;3.33;;
13592;SDS011;6867;50.998;4.250;2023-09-19T00:11:52;14.43;;;3.03;;
13592;SDS011;6867;50.998;4.250;2023-09-19T00:14:19;8.27;;;1.98;;
13592;SDS011;6867;50.998;4.250;2023-09-19T00:16:49;10.98;;;2.78;;
13592;SDS011;6867;50.998;4.250;2023-09-19T00:19:17;8.03;;;2.00;;
13592;SDS011;6867;50.998;4.250;2023-09-19T00:21:44;12.60;;;2.47;;
13592;SDS011;6867;50.998;4.250;2023-09-19T00:24:11;6.47;;;1.67;;
13592;SDS011;6867;50.998;4.250;2023-09-19T00:26:38;7.78;;;2.17;;
13592;SDS011;6867;50.998;4.250;2023-09-19T00:29:04;9.75;;;2.13;;
13592;SDS011;6867;50.998;4.250;2023-09-19T00:31:33;6.53;;;1.85;;
13592;SDS011;6867;50.998;4.250;2023-09-19T00:34:02;6.28;;;2.15;;
13592;SDS011;6867;50.998;4.250;2023-09-19T00:36:36;10.65;;;2.30;;
13592;SDS011;6867;50.998;4.250;2023-09-19T00:39:04;6.85;;;2.05;;
13592;SDS011;6867;50.998;4.250;2023-09-19T00:41:31;12.30;;;2.63;;
13592;SDS011;6867;50.998;4.250;2023-09-19T00:44:00;4.22;;;1.92;;
13592;SDS011;6867;50.998;4.250;2023-09-19T00:46:28;6.45;;;2.08;;
13592;SDS011;6867;50.998;4.250;2023-09-19T00:48:55;5.95;;;2.20;;
13592;SDS011;6867;50.998;4.250;2023-09-19T00:51:23;8.33;;;2.13;;
13592;SDS011;6867;50.998;4.250;2023-09-19T00:53:51;8.40;;;2.63;;
13592;SDS011;6867;50.998;4.250;2023-09-19T00:56:19;9.13;;;2.10;;
13592;SDS011;6867;50.998;4.250;2023-09-19T00:58:46;5.60;;;1.77;;
13592;SDS011;6867;50.998;4.250;2023-09-19T01:01:12;11.98;;;2.35;;
13592;SDS011;6867;50.998;4.250;2023-09-19T01:03:40;9.65;;;2.10;;
13592;SDS011;6867;50.998;4.250;2023-09-19T01:06:07;9.35;;;2.72;;
13592;SDS011;6867;50.998;4.250;2023-09-19T01:08:34;9.73;;;2.40;;
13592;SDS011;6867;50.998;4.250;2023-09-19T01:11:06;8.80;;;2.25;;
13592;SDS011;6867;50.998;4.250;2023-09-19T01:13:41;8.68;;;2.30;;
13592;SDS011;6867;50.998;4.250;2023-09-19T01:16:16;8.52;;;2.20;;
13592;SDS011;6867;50.998;4.250;2023-09-19T01:18:50;6.25;;;1.80;;
13592;SDS011;6867;50.998;4.250;2023-09-19T01:21:23;9.13;;;2.45;;
13592;SDS011;6867;50.998;4.250;2023-09-19T01:24:07;9.88;;;2.05;;
13592;SDS011;6867;50.998;4.250;2023-09-19T01:26:55;8.85;;;2.30;;
13592;SDS011;6867;50.998;4.250;2023-09-19T01:29:33;7.38;;;2.08;;
13592;SDS011;6867;50.998;4.250;2023-09-19T01:32:06;9.82;;;2.35;;
13592;SDS011;6867;50.998;4.250;2023-09-19T01:34:45;8.65;;;1.95;;
13592;SDS011;6867;50.998;4.250;2023-09-19T01:37:15;10.50;;;2.13;;
13592;SDS011;6867;50.998;4.250;2023-09-19T01:39:45;5.95;;;2.30;;
13592;SDS011;6867;50.998;4.250;2023-09-19T01:42:18;13.90;;;2.30;;
13592;SDS011;6867;50.998;4.250;2023-09-19T01:44:51;9.13;;;2.17;;
13592;SDS011;6867;50.998;4.250;2023-09-19T01:47:28;12.82;;;2.10;;
13592;SDS011;6867;50.998;4.250;2023-09-19T01:50:02;4.45;;;1.88;;
13592;SDS011;6867;50.998;4.250;2023-09-19T01:52:38;7.35;;;2.13;;
13592;SDS011;6867;50.998;4.250;2023-09-19T01:55:12;9.15;;;2.15;;
13592;SDS011;6867;50.998;4.250;2023-09-19T01:57:45;9.00;;;2.20;;
13592;SDS011;6867;50.998;4.250;2023-09-19T02:00:18;7.80;;;2.30;;
13592;SDS011;6867;50.998;4.250;2023-09-19T02:02:50;14.00;;;2.20;;
13592;SDS011;6867;50.998;4.250;2023-09-19T02:05:24;8.55;;;2.33;;
13592;SDS011;6867;50.998;4.250;2023-09-19T02:07:52;12.57;;;2.70;;
13592;SDS011;6867;50.998;4.250;2023-09-19T02:10:19;6.90;;;2.45;;
13592;SDS011;6867;50.998;4.250;2023-09-19T02:12:46;11.63;;;2.58;;
13592;SDS011;6867;50.998;4.250;2023-09-19T02:15:12;11.05;;;2.55;;
13592;SDS011;6867;50.998;4.250;2023-09-19T02:17:41;8.52;;;2.65;;
13592;SDS011;6867;50.998;4.250;2023-09-19T02:20:09;10.00;;;2.17;;
13592;SDS011;6867;50.998;4.250;2023-09-19T02:22:40;10.38;;;2.90;;
13592;SDS011;6867;50.998;4.250;2023-09-19T02:25:07;10.13;;;2.10;;
13592;SDS011;6867;50.998;4.250;2023-09-19T02:27:34;6.38;;;1.75;;
13592;SDS011;6867;50.998;4.250;2023-09-19T02:30:01;11.65;;;2.72;;
13592;SDS011;6867;50.998;4.250;2023-09-19T02:32:29;10.40;;;2.42;;
13592;SDS011;6867;50.998;4.250;2023-09-19T02:34:56;10.02;;;2.30;;
13592;SDS011;6867;50.998;4.250;2023-09-19T02:37:25;7.32;;;2.13;;
13592;SDS011;6867;50.998;4.250;2023-09-19T02:39:51;10.10;;;2.63;;
13592;SDS011;6867;50.998;4.250;2023-09-19T02:42:18;9.77;;;3.28;;
13592;SDS011;6867;50.998;4.250;2023-09-19T02:44:45;7.05;;;2.58;;
13592;SDS011;6867;50.998;4.250;2023-09-19T02:47:12;16.42;;;2.75;;
13592;SDS011;6867;50.998;4.250;2023-09-19T02:49:40;7.63;;;2.20;;
13592;SDS011;6867;50.998;4.250;2023-09-19T02:52:07;8.07;;;2.13;;
13592;SDS011;6867;50.998;4.250;2023-09-19T02:54:37;9.20;;;2.50;;
13592;SDS011;6867;50.998;4.250;2023-09-19T02:57:04;11.60;;;2.42;;
13592;SDS011;6867;50.998;4.250;2023-09-19T02:59:32;6.32;;;2.08;;
13592;SDS011;6867;50.998;4.250;2023-09-19T03:02:01;8.60;;;2.05;;
13592;SDS011;6867;50.998;4.250;2023-09-19T03:04:29;8.35;;;2.00;;
13592;SDS011;6867;50.998;4.250;2023-09-19T03:06:56;9.98;;;2.60;;
13592;SDS011;6867;50.998;4.250;2023-09-19T03:09:25;6.10;;;2.22;;
13592;SDS011;6867;50.998;4.250;2023-09-19T03:11:53;9.15;;;2.15;;
13592;SDS011;6867;50.998;4.250;2023-09-19T03:14:20;7.72;;;2.30;;
13592;SDS011;6867;50.998;4.250;2023-09-19T03:16:48;7.20;;;2.60;;
13592;SDS011;6867;50.998;4.250;2023-09-19T03:19:15;6.28;;;2.20;;
13592;SDS011;6867;50.998;4.250;2023-09-19T03:21:42;7.03;;;2.13;;
13592;SDS011;6867;50.998;4.250;2023-09-19T03:24:09;9.02;;;2.13;;
13592;SDS011;6867;50.998;4.250;2023-09-19T03:26:36;9.75;;;2.60;;
13592;SDS011;6867;50.998;4.250;2023-09-19T03:29:04;11.13;;;2.20;;
13592;SDS011;6867;50.998;4.250;2023-09-19T03:31:32;7.25;;;2.08;;
13592;SDS011;6867;50.998;4.250;2023-09-19T03:34:01;9.02;;;2.38;;
13592;SDS011;6867;50.998;4.250;2023-09-19T03:36:28;6.70;;;1.95;;
13592;SDS011;6867;50.998;4.250;2023-09-19T03:38:55;13.32;;;2.00;;
13592;SDS011;6867;50.998;4.250;2023-09-19T03:41:22;7.78;;;1.73;;
13592;SDS011;6867;50.998;4.250;2023-09-19T03:43:49;6.32;;;2.25;;
13592;SDS011;6867;50.998;4.250;2023-09-19T03:46:17;6.15;;;1.92;;
13592;SDS011;6867;50.998;4.250;2023-09-19T03:48:43;8.45;;;2.03;;
13592;SDS011;6867;50.998;4.250;2023-09-19T03:51:10;6.50;;;1.80;;
13592;SDS011;6867;50.998;4.250;2023-09-19T03:53:37;8.57;;;2.30;;
13592;SDS011;6867;50.998;4.250;2023-09-19T03:56:03;7.78;;;1.70;;
13592;SDS011;6867;50.998;4.250;2023-09-19T03:58:30;9.60;;;2.63;;
13592;SDS011;6867;50.998;4.250;2023-09-19T04:00:57;7.30;;;2.10;;
13592;SDS011;6867;50.998;4.250;2023-09-19T04:03:25;11.10;;;2.00;;
13592;SDS011;6867;50.998;4.250;2023-09-19T04:06:00;10.93;;;2.90;;
13592;SDS011;6867;50.998;4.250;2023-09-19T04:08:27;8.60;;;2.50;;
13592;SDS011;6867;50.998;4.250;2023-09-19T04:10:54;9.52;;;2.40;;
13592;SDS011;6867;50.998;4.250;2023-09-19T04:13:21;9.40;;;2.63;;
13592;SDS011;6867;50.998;4.250;2023-09-19T04:15:48;7.18;;;2.40;;
13592;SDS011;6867;50.998;4.250;2023-09-19T04:18:15;14.73;;;2.70;;
13592;SDS011;6867;50.998;4.250;2023-09-19T04:20:47;13.70;;;2.47;;
13592;SDS011;6867;50.998;4.250;2023-09-19T04:23:14;8.93;;;2.07;;
13592;SDS011;6867;50.998;4.250;2023-09-19T04:25:41;10.67;;;2.23;;
13592;SDS011;6867;50.998;4.250;2023-09-19T04:28:08;9.83;;;2.27;;
13592;SDS011;6867;50.998;4.250;2023-09-19T04:30:36;7.17;;;2.47;;
13592;SDS011;6867;50.998;4.250;2023-09-19T04:33:03;6.53;;;2.73;;
13592;SDS011;6867;50.998;4.250;2023-09-19T04:35:30;11.37;;;2.67;;
13592;SDS011;6867;50.998;4.250;2023-09-19T04:37:58;12.93;;;2.67;;
13592;SDS011;6867;50.998;4.250;2023-09-19T04:40:25;9.83;;;2.40;;
13592;SDS011;6867;50.998;4.250;2023-09-19T04:42:53;17.30;;;3.13;;
13592;SDS011;6867;50.998;4.250;2023-09-19T04:45:21;10.53;;;2.37;;
13592;SDS011;6867;50.998;4.250;2023-09-19T04:47:48;12.83;;;2.63;;
13592;SDS011;6867;50.998;4.250;2023-09-19T04:50:15;11.97;;;2.50;;
13592;SDS011;6867;50.998;4.250;2023-09-19T04:52:42;11.40;;;2.47;;
13592;SDS011;6867;50.998;4.250;2023-09-19T04:55:11;8.07;;;2.33;;
13592;SDS011;6867;50.998;4.250;2023-09-19T04:57:41;10.30;;;2.87;;
13592;SDS011;6867;50.998;4.250;2023-09-19T05:00:10;6.77;;;2.13;;
13592;SDS011;6867;50.998;4.250;2023-09-19T05:02:39;12.47;;;2.93;;
13592;SDS011;6867;50.998;4.250;2023-09-19T05:05:06;7.60;;;2.60;;
13592;SDS011;6867;50.998;4.250;2023-09-19T05:07:33;10.50;;;2.43;;
13592;SDS011;6867;50.998;4.250;2023-09-19T05:10:00;12.43;;;2.80;;
13592;SDS011;6867;50.998;4.250;2023-09-19T05:12:31;13.90;;;2.90;;
13592;SDS011;6867;50.998;4.250;2023-09-19T05:14:59;10.30;;;2.10;;
13592;SDS011;6867;50.998;4.250;2023-09-19T05:17:26;7.83;;;2.53;;
13592;SDS011;6867;50.998;4.250;2023-09-19T05:19:53;7.30;;;2.33;;
13592;SDS011;6867;50.998;4.250;2023-09-19T05:22:19;13.93;;;2.80;;
13592;SDS011;6867;50.998;4.250;2023-09-19T05:24:46;8.97;;;2.53;;
13592;SDS011;6867;50.998;4.250;2023-09-19T05:27:13;4.90;;;2.00;;
13592;SDS011;6867;50.998;4.250;2023-09-19T05:29:43;7.23;;;2.30;;
13592;SDS011;6867;50.998;4.250;2023-09-19T05:32:10;14.83;;;2.67;;
13592;SDS011;6867;50.998;4.250;2023-09-19T05:34:36;13.70;;;2.70;;
13592;SDS011;6867;50.998;4.250;2023-09-19T05:37:03;10.33;;;1.93;;
13592;SDS011;6867;50.998;4.250;2023-09-19T05:39:32;7.27;;;1.83;;
13592;SDS011;6867;50.998;4.250;2023-09-19T05:41:58;7.77;;;2.43;;
13592;SDS011;6867;50.998;4.250;2023-09-19T05:44:26;5.53;;;2.17;;
13592;SDS011;6867;50.998;4.250;2023-09-19T05:46:54;15.77;;;3.00;;
13592;SDS011;6867;50.998;4.250;2023-09-19T05:49:23;13.63;;;2.80;;
13592;SDS011;6867;50.998;4.250;2023-09-19T05:51:49;9.80;;;2.20;;
13592;SDS011;6867;50.998;4.250;2023-09-19T05:54:19;9.73;;;2.33;;
13592;SDS011;6867;50.998;4.250;2023-09-19T05:56:45;10.77;;;3.67;;
13592;SDS011;6867;50.998;4.250;2023-09-19T05:59:12;8.73;;;2.67;;
13592;SDS011;6867;50.998;4.250;2023-09-19T06:01:39;9.80;;;2.10;;
13592;SDS011;6867;50.998;4.250;2023-09-19T06:04:07;7.27;;;1.80;;
13592;SDS011;6867;50.998;4.250;2023-09-19T06:06:34;12.93;;;2.35;;
13592;SDS011;6867;50.998;4.250;2023-09-19T06:09:05;12.57;;;2.83;;
13592;SDS011;6867;50.998;4.250;2023-09-19T06:11:33;13.20;;;2.53;;
13592;SDS011;6867;50.998;4.250;2023-09-19T06:14:00;10.67;;;2.43;;
13592;SDS011;6867;50.998;4.250;2023-09-19T06:16:27;10.13;;;2.67;;
13592;SDS011;6867;50.998;4.250;2023-09-19T06:18:54;8.93;;;2.53;;
13592;SDS011;6867;50.998;4.250;2023-09-19T06:21:22;7.70;;;2.10;;
13592;SDS011;6867;50.998;4.250;2023-09-19T06:23:49;12.13;;;2.83;;
13592;SDS011;6867;50.998;4.250;2023-09-19T06:26:15;10.10;;;2.33;;
13592;SDS011;6867;50.998;4.250;2023-09-19T06:28:42;10.07;;;1.95;;
13592;SDS011;6867;50.998;4.250;2023-09-19T06:31:09;5.90;;;2.08;;
13592;SDS011;6867;50.998;4.250;2023-09-19T06:33:36;10.10;;;2.10;;
13592;SDS011;6867;50.998;4.250;2023-09-19T06:36:04;12.45;;;2.38;;
13592;SDS011;6867;50.998;4.250;2023-09-19T06:38:32;7.80;;;2.17;;
13592;SDS011;6867;50.998;4.250;2023-09-19T06:41:01;13.60;;;3.42;;
13592;SDS011;6867;50.998;4.250;2023-09-19T06:43:30;8.20;;;2.15;;
13592;SDS011;6867;50.998;4.250;2023-09-19T06:45:57;9.57;;;2.10;;
13592;SDS011;6867;50.998;4.250;2023-09-19T06:48:24;9.43;;;2.47;;
13592;SDS011;6867;50.998;4.250;2023-09-19T06:50:52;13.82;;;2.05;;
13592;SDS011;6867;50.998;4.250;2023-09-19T06:53:20;8.65;;;2.25;;
13592;SDS011;6867;50.998;4.250;2023-09-19T06:55:50;9.65;;;2.25;;
13592;SDS011;6867;50.998;4.250;2023-09-19T06:58:17;7.07;;;2.15;;
13592;SDS011;6867;50.998;4.250;2023-09-19T07:00:44;7.00;;;1.92;;
13592;SDS011;6867;50.998;4.250;2023-09-19T07:03:12;5.70;;;1.80;;
13592;SDS011;6867;50.998;4.250;2023-09-19T07:05:41;6.43;;;2.30;;
13592;SDS011;6867;50.998;4.250;2023-09-19T07:08:08;8.73;;;2.40;;
13592;SDS011;6867;50.998;4.250;2023-09-19T07:10:37;5.40;;;2.00;;
13592;SDS011;6867;50.998;4.250;2023-09-19T07:13:07;8.95;;;2.80;;
13592;SDS011;6867;50.998;4.250;2023-09-19T07:15:36;8.38;;;2.13;;
13592;SDS011;6867;50.998;4.250;2023-09-19T07:18:05;6.28;;;2.03;;
13592;SDS011;6867;50.998;4.250;2023-09-19T07:20:34;9.90;;;2.17;;
13592;SDS011;6867;50.998;4.250;2023-09-19T07:23:01;10.93;;;2.10;;
13592;SDS011;6867;50.998;4.250;2023-09-19T07:25:28;5.22;;;2.08;;
13592;SDS011;6867;50.998;4.250;2023-09-19T07:27:55;9.15;;;2.33;;
13592;SDS011;6867;50.998;4.250;2023-09-19T07:30:26;7.78;;;2.55;;
13592;SDS011;6867;50.998;4.250;2023-09-19T07:32:54;12.38;;;2.28;;
13592;SDS011;6867;50.998;4.250;2023-09-19T07:35:20;6.22;;;1.90;;
13592;SDS011;6867;50.998;4.250;2023-09-19T07:37:47;12.55;;;2.45;;
13592;SDS011;6867;50.998;4.250;2023-09-19T07:40:14;7.15;;;2.05;;
13592;SDS011;6867;50.998;4.250;2023-09-19T07:42:41;10.63;;;2.60;;
13592;SDS011;6867;50.998;4.250;2023-09-19T07:45:09;9.07;;;2.10;;
13592;SDS011;6867;50.998;4.250;2023-09-19T07:47:43;7.85;;;2.03;;
13592;SDS011;6867;50.998;4.250;2023-09-19T07:50:10;11.23;;;2.10;;
13592;SDS011;6867;50.998;4.250;2023-09-19T07:52:37;9.65;;;2.00;;
13592;SDS011;6867;50.998;4.250;2023-09-19T07:55:04;4.68;;;1.52;;
13592;SDS011;6867;50.998;4.250;2023-09-19T07:57:34;6.32;;;2.00;;
13592;SDS011;6867;50.998;4.250;2023-09-19T08:00:01;5.93;;;1.80;;
13592;SDS011;6867;50.998;4.250;2023-09-19T08:02:29;7.57;;;2.05;;
13592;SDS011;6867;50.998;4.250;2023-09-19T08:04:57;8.05;;;2.17;;
13592;SDS011;6867;50.998;4.250;2023-09-19T08:07:25;13.98;;;3.58;;
13592;SDS011;6867;50.998;4.250;2023-09-19T08:09:53;7.32;;;2.22;;
13592;SDS011;6867;50.998;4.250;2023-09-19T08:12:20;6.65;;;2.10;;
13592;SDS011;6867;50.998;4.250;2023-09-19T08:14:49;10.95;;;3.25;;
13592;SDS011;6867;50.998;4.250;2023-09-19T08:17:16;9.05;;;2.25;;
13592;SDS011;6867;50.998;4.250;2023-09-19T08:19:45;8.48;;;2.50;;
13592;SDS011;6867;50.998;4.250;2023-09-19T08:22:13;7.88;;;2.03;;
13592;SDS011;6867;50.998;4.250;2023-09-19T08:24:42;9.45;;;2.75;;
13592;SDS011;6867;50.998;4.250;2023-09-19T08:27:09;7.07;;;1.88;;
13592;SDS011;6867;50.998;4.250;2023-09-19T08:29:37;8.52;;;2.13;;
13592;SDS011;6867;50.998;4.250;2023-09-19T08:32:04;12.90;;;2.20;;
13592;SDS011;6867;50.998;4.250;2023-09-19T08:34:31;6.70;;;1.92;;
13592;SDS011;6867;50.998;4.250;2023-09-19T08:36:59;7.97;;;2.70;;
13592;SDS011;6867;50.998;4.250;2023-09-19T08:39:27;8.60;;;2.40;;
13592;SDS011;6867;50.998;4.250;2023-09-19T08:41:59;10.18;;;2.72;;
13592;SDS011;6867;50.998;4.250;2023-09-19T08:44:26;10.10;;;2.05;;
13592;SDS011;6867;50.998;4.250;2023-09-19T08:46:55;14.07;;;2.80;;
13592;SDS011;6867;50.998;4.250;2023-09-19T08:49:33;9.38;;;2.05;;
13592;SDS011;6867;50.998;4.250;2023-09-19T08:52:10;6.47;;;1.70;;
13592;SDS011;6867;50.998;4.250;2023-09-19T08:54:47;11.75;;;3.03;;
13592;SDS011;6867;50.998;4.250;2023-09-19T08:57:17;5.35;;;2.45;;
13592;SDS011;6867;50.998;4.250;2023-09-19T08:59:47;7.95;;;1.77;;
13592;SDS011;6867;50.998;4.250;2023-09-19T09:02:15;7.28;;;1.85;;
13592;SDS011;6867;50.998;4.250;2023-09-19T09:04:44;8.77;;;1.95;;
13592;SDS011;6867;50.998;4.250;2023-09-19T09:07:11;8.43;;;2.08;;
13592;SDS011;6867;50.998;4.250;2023-09-19T09:09:39;5.97;;;1.90;;
13592;SDS011;6867;50.998;4.250;2023-09-19T09:12:09;10.30;;;2.42;;
13592;SDS011;6867;50.998;4.250;2023-09-19T09:14:38;6.03;;;1.73;;
13592;SDS011;6867;50.998;4.250;2023-09-19T09:17:05;9.73;;;2.10;;
13592;SDS011;6867;50.998;4.250;2023-09-19T09:19:32;13.00;;;2.50;;
13592;SDS011;6867;50.998;4.250;2023-09-19T09:22:05;11.18;;;1.92;;
13592;SDS011;6867;50.998;4.250;2023-09-19T09:24:33;6.35;;;1.80;;
13592;SDS011;6867;50.998;4.250;2023-09-19T09:27:03;7.03;;;1.95;;
13592;SDS011;6867;50.998;4.250;2023-09-19T09:29:45;9.43;;;1.88;;
13592;SDS011;6867;50.998;4.250;2023-09-19T09:32:20;13.07;;;2.33;;
13592;SDS011;6867;50.998;4.250;2023-09-19T09:34:49;5.15;;;1.63;;
13592;SDS011;6867;50.998;4.250;2023-09-19T09:37:18;6.97;;;1.88;;
13592;SDS011;6867;50.998;4.250;2023-09-19T09:39:49;7.57;;;1.83;;
13592;SDS011;6867;50.998;4.250;2023-09-19T09:42:28;8.73;;;2.17;;
13592;SDS011;6867;50.998;4.250;2023-09-19T09:47:43;6.95;;;1.90;;
13592;SDS011;6867;50.998;4.250;2023-09-19T09:50:26;7.32;;;1.90;;
13592;SDS011;6867;50.998;4.250;2023-09-19T09:53:04;6.72;;;1.92;;
13592;SDS011;6867;50.998;4.250;2023-09-19T09:55:59;7.68;;;2.15;;
13592;SDS011;6867;50.998;4.250;2023-09-19T09:58:28;6.63;;;1.70;;
13592;SDS011;6867;50.998;4.250;2023-09-19T10:00:59;7.28;;;1.80;;
13592;SDS011;6867;50.998;4.250;2023-09-19T10:03:33;6.97;;;1.88;;
13592;SDS011;6867;50.998;4.250;2023-09-19T10:06:06;3.15;;;1.33;;
13592;SDS011;6867;50.998;4.250;2023-09-19T10:08:58;8.30;;;1.40;;
13592;SDS011;6867;50.998;4.250;2023-09-19T10:11:37;8.20;;;1.95;;
13592;SDS011;6867;50.998;4.250;2023-09-19T10:14:08;2.55;;;1.13;;
13592;SDS011;6867;50.998;4.250;2023-09-19T10:16:39;8.60;;;1.77;;
13592;SDS011;6867;50.998;4.250;2023-09-19T10:19:09;5.50;;;1.60;;
13592;SDS011;6867;50.998;4.250;2023-09-19T10:21:36;3.88;;;1.38;;
13592;SDS011;6867;50.998;4.250;2023-09-19T10:24:05;5.85;;;1.92;;
13592;SDS011;6867;50.998;4.250;2023-09-19T10:26:34;5.30;;;1.52;;
13592;SDS011;6867;50.998;4.250;2023-09-19T10:29:02;6.35;;;1.58;;
13592;SDS011;6867;50.998;4.250;2023-09-19T10:31:32;9.63;;;1.90;;
13592;SDS011;6867;50.998;4.250;2023-09-19T10:34:04;4.68;;;1.83;;
13592;SDS011;6867;50.998;4.250;2023-09-19T10:36:32;5.43;;;2.17;;
13592;SDS011;6867;50.998;4.250;2023-09-19T10:39:00;5.05;;;1.40;;
13592;SDS011;6867;50.998;4.250;2023-09-19T10:41:31;6.78;;;1.80;;
13592;SDS011;6867;50.998;4.250;2023-09-19T10:43:59;6.95;;;1.65;;
13592;SDS011;6867;50.998;4.250;2023-09-19T10:46:30;7.32;;;1.60;;
13592;SDS011;6867;50.998;4.250;2023-09-19T10:48:58;9.50;;;1.65;;
13592;SDS011;6867;50.998;4.250;2023-09-19T10:51:27;8.00;;;1.30;;
13592;SDS011;6867;50.998;4.250;2023-09-19T10:53:59;4.78;;;1.58;;
13592;SDS011;6867;50.998;4.250;2023-09-19T10:56:33;5.47;;;1.52;;
13592;SDS011;6867;50.998;4.250;2023-09-19T10:59:06;5.47;;;1.60;;
13592;SDS011;6867;50.998;4.250;2023-09-19T11:01:45;7.10;;;1.27;;
13592;SDS011;6867;50.998;4.250;2023-09-19T11:04:23;8.18;;;1.27;;
13592;SDS011;6867;50.998;4.250;2023-09-19T11:07:01;4.10;;;1.05;;
13592;SDS011;6867;50.998;4.250;2023-09-19T11:09:48;4.05;;;0.90;;
13592;SDS011;6867;50.998;4.250;2023-09-19T11:24:30;3.20;;;1.30;;
13592;SDS011;6867;50.998;4.250;2023-09-19T11:29:56;1.92;;;0.80;;
13592;SDS011;6867;50.998;4.250;2023-09-19T11:35:58;5.10;;;1.00;;
13592;SDS011;6867;50.998;4.250;2023-09-19T11:41:41;5.72;;;0.90;;
13592;SDS011;6867;50.998;4.250;2023-09-19T11:46:59;4.82;;;1.00;;
13592;SDS011;6867;50.998;4.250;2023-09-19T11:49:29;3.10;;;0.90;;
13592;SDS011;6867;50.998;4.250;2023-09-19T11:51:57;4.07;;;1.15;;
13592;SDS011;6867;50.998;4.250;2023-09-19T11:54:26;4.13;;;1.25;;
13592;SDS011;6867;50.998;4.250;2023-09-19T11:56:58;2.63;;;0.73;;
13592;SDS011;6867;50.998;4.250;2023-09-19T11:59:26;3.60;;;0.98;;
13592;SDS011;6867;50.998;4.250;2023-09-19T12:01:55;4.75;;;1.00;;
13592;SDS011;6867;50.998;4.250;2023-09-19T12:04:33;2.90;;;1.25;;
13592;SDS011;6867;50.998;4.250;2023-09-19T12:07:03;5.72;;;1.10;;
13592;SDS011;6867;50.998;4.250;2023-09-19T12:09:31;4.20;;;1.20;;
13592;SDS011;6867;50.998;4.250;2023-09-19T12:11:59;5.07;;;1.10;;
13592;SDS011;6867;50.998;4.250;2023-09-19T12:14:26;2.65;;;0.90;;
13592;SDS011;6867;50.998;4.250;2023-09-19T12:16:54;3.25;;;0.85;;
13592;SDS011;6867;50.998;4.250;2023-09-19T12:19:21;7.55;;;1.02;;
13592;SDS011;6867;50.998;4.250;2023-09-19T12:21:55;4.28;;;0.80;;
13592;SDS011;6867;50.998;4.250;2023-09-19T12:24:29;2.92;;;1.00;;
13592;SDS011;6867;50.998;4.250;2023-09-19T12:27:00;1.55;;;0.98;;
13592;SDS011;6867;50.998;4.250;2023-09-19T12:29:30;4.72;;;1.00;;
13592;SDS011;6867;50.998;4.250;2023-09-19T12:31:59;4.40;;;0.93;;
13592;SDS011;6867;50.998;4.250;2023-09-19T12:34:29;3.20;;;1.20;;
13592;SDS011;6867;50.998;4.250;2023-09-19T12:37:06;2.63;;;0.70;;
13592;SDS011;6867;50.998;4.250;2023-09-19T12:39:38;1.52;;;0.77;;
13592;SDS011;6867;50.998;4.250;2023-09-19T12:42:08;4.13;;;1.15;;
13592;SDS011;6867;50.998;4.250;2023-09-19T12:44:37;2.72;;;1.00;;
13592;SDS011;6867;50.998;4.250;2023-09-19T12:47:09;3.25;;;1.42;;
13592;SDS011;6867;50.998;4.250;2023-09-19T12:52:36;4.15;;;1.20;;
13592;SDS011;6867;50.998;4.250;2023-09-19T12:55:03;3.95;;;1.10;;
13592;SDS011;6867;50.998;4.250;2023-09-19T12:57:33;3.55;;;1.10;;
13592;SDS011;6867;50.998;4.250;2023-09-19T13:00:00;6.40;;;1.08;;
13592;SDS011;6867;50.998;4.250;2023-09-19T13:02:27;4.78;;;1.02;;
13592;SDS011;6867;50.998;4.250;2023-09-19T13:04:54;5.18;;;1.33;;
13592;SDS011;6867;50.998;4.250;2023-09-19T13:07:40;2.05;;;1.20;;
13592;SDS011;6867;50.998;4.250;2023-09-19T13:10:10;4.60;;;1.27;;
13592;SDS011;6867;50.998;4.250;2023-09-19T13:12:42;3.25;;;1.45;;
13592;SDS011;6867;50.998;4.250;2023-09-19T13:15:12;5.20;;;1.20;;
13592;SDS011;6867;50.998;4.250;2023-09-19T13:17:44;2.40;;;1.10;;
13592;SDS011;6867;50.998;4.250;2023-09-19T13:20:22;5.65;;;1.27;;
13592;SDS011;6867;50.998;4.250;2023-09-19T13:22:54;3.10;;;1.02;;
13592;SDS011;6867;50.998;4.250;2023-09-19T13:25:25;7.80;;;1.85;;
13592;SDS011;6867;50.998;4.250;2023-09-19T13:27:56;3.20;;;1.13;;
13592;SDS011;6867;50.998;4.250;2023-09-19T13:30:25;1.50;;;1.05;;
13592;SDS011;6867;50.998;4.250;2023-09-19T13:33:04;4.93;;;1.42;;
13592;SDS011;6867;50.998;4.250;2023-09-19T13:35:31;4.43;;;1.20;;
13592;SDS011;6867;50.998;4.250;2023-09-19T13:37:58;2.22;;;1.17;;
13592;SDS011;6867;50.998;4.250;2023-09-19T13:40:26;4.55;;;1.10;;
13592;SDS011;6867;50.998;4.250;2023-09-19T13:42:57;2.17;;;0.93;;
13592;SDS011;6867;50.998;4.250;2023-09-19T13:45:23;5.97;;;1.00;;
13592;SDS011;6867;50.998;4.250;2023-09-19T13:47:52;4.38;;;1.45;;
13592;SDS011;6867;50.998;4.250;2023-09-19T13:50:18;3.33;;;1.17;;
13592;SDS011;6867;50.998;4.250;2023-09-19T13:52:49;3.55;;;1.60;;
13592;SDS011;6867;50.998;4.250;2023-09-19T13:55:16;5.55;;;1.10;;
13592;SDS011;6867;50.998;4.250;2023-09-19T13:57:45;3.95;;;1.20;;
13592;SDS011;6867;50.998;4.250;2023-09-19T14:00:13;3.15;;;1.10;;
13592;SDS011;6867;50.998;4.250;2023-09-19T14:02:41;3.88;;;1.45;;
13592;SDS011;6867;50.998;4.250;2023-09-19T14:05:09;6.80;;;1.67;;
13592;SDS011;6867;50.998;4.250;2023-09-19T14:07:37;3.90;;;1.30;;
13592;SDS011;6867;50.998;4.250;2023-09-19T14:10:04;3.10;;;1.50;;
13592;SDS011;6867;50.998;4.250;2023-09-19T14:12:33;3.08;;;1.38;;
13592;SDS011;6867;50.998;4.250;2023-09-19T14:15:00;5.95;;;1.80;;
13592;SDS011;6867;50.998;4.250;2023-09-19T14:17:28;4.60;;;1.52;;
13592;SDS011;6867;50.998;4.250;2023-09-19T14:19:55;6.45;;;1.70;;
13592;SDS011;6867;50.998;4.250;2023-09-19T14:22:22;4.72;;;1.60;;
13592;SDS011;6867;50.998;4.250;2023-09-19T14:24:49;5.85;;;2.05;;
13592;SDS011;6867;50.998;4.250;2023-09-19T14:27:15;7.05;;;1.80;;
13592;SDS011;6867;50.998;4.250;2023-09-19T14:29:42;4.95;;;1.40;;
13592;SDS011;6867;50.998;4.250;2023-09-19T14:32:08;6.68;;;1.50;;
13592;SDS011;6867;50.998;4.250;2023-09-19T14:34:37;5.68;;;1.70;;
13592;SDS011;6867;50.998;4.250;2023-09-19T14:37:07;7.82;;;2.33;;
13592;SDS011;6867;50.998;4.250;2023-09-19T14:39:33;3.30;;;1.38;;
13592;SDS011;6867;50.998;4.250;2023-09-19T14:42:00;7.22;;;3.08;;
13592;SDS011;6867;50.998;4.250;2023-09-19T14:44:28;4.57;;;1.65;;
13592;SDS011;6867;50.998;4.250;2023-09-19T14:46:54;5.05;;;1.38;;
13592;SDS011;6867;50.998;4.250;2023-09-19T14:49:21;3.28;;;1.35;;
13592;SDS011;6867;50.998;4.250;2023-09-19T14:51:49;6.18;;;1.75;;
13592;SDS011;6867;50.998;4.250;2023-09-19T14:54:17;5.15;;;1.80;;
13592;SDS011;6867;50.998;4.250;2023-09-19T14:56:44;5.28;;;2.05;;
13592;SDS011;6867;50.998;4.250;2023-09-19T14:59:10;5.32;;;1.33;;
13592;SDS011;6867;50.998;4.250;2023-09-19T15:01:38;4.78;;;1.65;;
13592;SDS011;6867;50.998;4.250;2023-09-19T15:04:04;8.68;;;1.90;;
13592;SDS011;6867;50.998;4.250;2023-09-19T15:06:31;6.32;;;1.70;;
13592;SDS011;6867;50.998;4.250;2023-09-19T15:09:00;2.88;;;1.70;;
13592;SDS011;6867;50.998;4.250;2023-09-19T15:11:29;7.38;;;1.77;;
13592;SDS011;6867;50.998;4.250;2023-09-19T15:13:56;8.65;;;1.92;;
13592;SDS011;6867;50.998;4.250;2023-09-19T15:16:23;4.20;;;1.70;;
13592;SDS011;6867;50.998;4.250;2023-09-19T15:18:50;5.38;;;1.50;;
13592;SDS011;6867;50.998;4.250;2023-09-19T15:21:17;5.60;;;1.70;;
13592;SDS011;6867;50.998;4.250;2023-09-19T15:23:44;7.05;;;2.08;;
13592;SDS011;6867;50.998;4.250;2023-09-19T15:26:13;4.93;;;2.08;;
13592;SDS011;6867;50.998;4.250;2023-09-19T15:28:42;4.90;;;1.40;;
13592;SDS011;6867;50.998;4.250;2023-09-19T15:31:09;5.00;;;1.70;;
13592;SDS011;6867;50.998;4.250;2023-09-19T15:33:37;7.13;;;1.65;;
13592;SDS011;6867;50.998;4.250;2023-09-19T15:36:05;6.20;;;1.60;;
13592;SDS011;6867;50.998;4.250;2023-09-19T15:38:56;4.90;;;1.50;;
13592;SDS011;6867;50.998;4.250;2023-09-19T15:41:26;5.38;;;1.55;;